首页
METAR-TAF:

METAR-TAF

机场 :

匹兹堡国际机场

匹兹堡, 宾夕法尼亚州, 美国

纬度: 40-30-14N, 经度: 080-15-59W, 海拔: 366米

当前天气观测

该预报发布于1小时和2分钟前的20:51 UTC
风速8节,风向西转西南
温度 26°C
湿度 58%
气压 1016 hPa
能見度: 16.1公里
散云层高于3000英尺
多云层高于8000英尺
阴天层高于13000英尺

METAR: KPIT 262051Z 25008KT 10SM SCT030 BKN080 OVC130 26/17 A3000 RMK AO2 SLP157 T02560172 56013

时间: 17:53 (21:53 UTC)

预报

该预报发布于45分钟前的21:08 UTC
预报有效从26日的 21点(UTC)到 27日的 24点(UTC)
风速8节,风向西
能見度: 10公里
散云层高于3000英尺
多云层高于8000英尺
从 26日的 2300点(UTC)
风速8节,风向西转西北
能見度: 10公里
多云层高于4000英尺
附近有阵雨
从 27日的 0200点(UTC)
风速6节,风向北转西北
能見度: 10公里
多云层高于5000英尺
从 27日的 1300点(UTC)
风速4节,风向北转西北
能見度: 10公里
散云层高于5000英尺

TAF: KPIT 262108Z 2621/2724 26008KT P6SM SCT030 BKN080 FM262300 29008KT P6SM VCSH BKN040 FM270200 33006KT P6SM BKN050 FM271300 33004KT P6SM SCT050

超过4000个机场的气象观测和天气预报(METAR&TAF报告)。

可查询的气象台以黄色和红色小点在地图上表示。

将鼠标移到小点上方,可查看气象台名称。

然后点击查看天气观测和预报。

如需切换地图:点击带黑十字的绿色按钮放大地图;点击带横线的绿色按钮缩小地图;或者点击绿色箭头查看邻近地区的地图。


METAR-TAF: